Lambertville, MI

2:15 PM EST on December 11, 2017 (GMT -0500)
Lambertville

Weather History for KDUH - November, 2013

Change the Weather History Date:

Wednesday, November 6, 2013

  Actual Average (KTOL) Record (KTOL)
Temperature  
Mean Temperature 52 °F -  
Max Temperature 59 °F 49 °F 76 °F (1975)
Min Temperature 44 °F 33 °F 19 °F (1877)
Degree Days  
Heating Degree Days 14    
Growing Degree Days 2 (Base 50)    
Moisture  
Dew Point 45 °F    
Average Humidity 73    
Maximum Humidity 94    
Minimum Humidity 51    
Precipitation  
Precipitation 0.00 in - - ()
Sea Level Pressure  
Sea Level Pressure 29.98 in    
Wind  
Wind Speed 9 mph (SSW)    
Max Wind Speed 20 mph    
Max Gust Speed 29 mph    
Visibility 10 miles    
Events Rain    
Averages and records for this station are not official NWS values.
T = Trace of Precipitation, MM = Missing Value Source: NWS Daily Summary

Daily Weather History Graph

Daily Weather History Graph

Search for Another Location

Airport or City:

Trip Planner

Search our weather history database for the weather conditions in past years. The results will help you decide how hot, cold, wet, or windy it might be!

Date:

Astronomy

Nov. 06, 2013 Rise Set
Actual Time 7:13 AM EST 5:22 PM EST
Civil Twilight 6:43 AM EST 5:52 PM EST
Nautical Twilight 6:10 AM EST 6:25 PM EST
Astronomical Twilight 5:38 AM EST 6:57 PM EST
Moon 10:28 AM EST (11/6) 8:25 PM EST (11/6)
Length of Visible Light 11h 08m
Length of Day
10h 09m
Waxing Crescent, 13% of the Moon is Illuminated
Nov 6
Waxing Crescent
Nov 10
First Quarter
Nov 17
Full
Nov 25
Last Quarter
Dec 2
New

Hourly Weather History & Observations

Time (EST) Temp. Windchill Dew Point Humidity Pressure Visibility Wind Dir Wind Speed Gust Speed Precip Events Conditions
12:15 AM 53.6 °F - 41.0 °F 62% 30.18 in 10.0 mi South 6.9 mph - N/A   Clear
12:35 AM 53.6 °F - 39.2 °F 58% 30.18 in 10.0 mi South 8.1 mph - N/A   Clear
12:55 AM 53.6 °F - 39.2 °F 58% 30.16 in 10.0 mi South 8.1 mph - N/A   Clear
1:15 AM 53.6 °F - 39.2 °F 58% 30.15 in 10.0 mi SSE 8.1 mph - N/A   Scattered Clouds
1:35 AM 53.6 °F - 39.2 °F 58% 30.14 in 10.0 mi South 6.9 mph - N/A   Scattered Clouds
1:55 AM 53.6 °F - 39.2 °F 58% 30.14 in 10.0 mi South 6.9 mph - N/A   Mostly Cloudy
2:15 AM 53.6 °F - 39.2 °F 58% 30.13 in 10.0 mi South 10.4 mph 16.1 mph N/A   Overcast
2:35 AM 53.6 °F - 37.4 °F 54% 30.13 in 10.0 mi South 8.1 mph - N/A   Overcast
2:55 AM 53.6 °F - 37.4 °F 54% 30.12 in 10.0 mi South 6.9 mph - N/A   Overcast
3:15 AM 53.6 °F - 37.4 °F 54% 30.10 in 10.0 mi South 6.9 mph - N/A   Overcast
3:35 AM 53.6 °F - 37.4 °F 54% 30.10 in 10.0 mi South 8.1 mph - N/A   Overcast
3:55 AM 53.6 °F - 37.4 °F 54% 30.08 in 10.0 mi SSE 8.1 mph - N/A   Overcast
4:15 AM 53.6 °F - 37.4 °F 54% 30.08 in 10.0 mi South 8.1 mph - N/A   Overcast
4:35 AM 55.4 °F - 37.4 °F 51% 30.07 in 10.0 mi South 8.1 mph - N/A   Overcast
4:55 AM 55.4 °F - 37.4 °F 51% 30.06 in 10.0 mi South 8.1 mph 16.1 mph N/A   Overcast
5:15 AM 55.4 °F - 37.4 °F 51% 30.05 in 10.0 mi South 9.2 mph 18.4 mph N/A   Overcast
5:35 AM 55.4 °F - 39.2 °F 54% 30.05 in 10.0 mi South 10.4 mph - N/A   Overcast
5:55 AM 55.4 °F - 41.0 °F 58% 30.04 in 10.0 mi South 10.4 mph - N/A   Overcast
6:15 AM 55.4 °F - 41.0 °F 58% 30.03 in 10.0 mi SSE 9.2 mph - N/A   Overcast
6:35 AM 55.4 °F - 41.0 °F 58% 30.01 in 10.0 mi South 10.4 mph 16.1 mph N/A   Overcast
6:55 AM 53.6 °F - 41.0 °F 62% 30.01 in 10.0 mi South 10.4 mph - N/A   Overcast
7:15 AM 53.6 °F - 42.8 °F 67% 30.00 in 10.0 mi South 9.2 mph - N/A   Light Drizzle
7:35 AM 53.6 °F - 42.8 °F 67% 30.00 in 10.0 mi South 6.9 mph - N/A   Overcast
7:55 AM 55.4 °F - 44.6 °F 67% 30.00 in 10.0 mi South 8.1 mph - N/A   Overcast
8:15 AM 55.4 °F - 44.6 °F 67% 30.00 in 10.0 mi SSW 6.9 mph 17.3 mph N/A Rain Light Rain
8:35 AM 55.4 °F - 46.4 °F 72% 30.00 in 10.0 mi SSW 10.4 mph - N/A Rain Light Rain
8:55 AM 55.4 °F - 46.4 °F 72% 30.00 in 10.0 mi SSW 10.4 mph 18.4 mph N/A   Drizzle
9:15 AM 55.4 °F - 46.4 °F 72% 29.99 in 10.0 mi South 10.4 mph 20.7 mph N/A Rain Light Rain
9:35 AM 59.0 °F - 44.6 °F 59% 29.98 in 10.0 mi SSW 12.7 mph 18.4 mph N/A   Overcast
9:55 AM 59.0 °F - 46.4 °F 63% 29.99 in 10.0 mi SSW 11.5 mph 26.5 mph N/A Rain Rain
10:15 AM 55.4 °F - 46.4 °F 72% 29.99 in 7.0 mi SSW 12.7 mph 23.0 mph N/A Rain Light Rain
10:35 AM 55.4 °F - 48.2 °F 77% 29.98 in 10.0 mi SSW 9.2 mph 18.4 mph N/A Rain Rain
10:55 AM 55.4 °F - 48.2 °F 77% 29.97 in 10.0 mi SSW 9.2 mph 17.3 mph N/A   Light Drizzle
11:15 AM 57.2 °F - 48.2 °F 72% 29.96 in 10.0 mi SSW 9.2 mph - N/A Rain Light Rain
11:35 AM 57.2 °F - 46.4 °F 67% 29.96 in 10.0 mi SSW 12.7 mph 23.0 mph N/A Rain Light Rain
11:55 AM 59.0 °F - 46.4 °F 63% 29.95 in 10.0 mi SSW 12.7 mph 20.7 mph N/A Rain Light Rain
12:15 PM 59.0 °F - 46.4 °F 63% 29.93 in 10.0 mi SSW 19.6 mph 27.6 mph N/A Rain Light Rain
12:35 PM 59.0 °F - 48.2 °F 67% 29.91 in 10.0 mi SSW 18.4 mph 26.5 mph N/A   Light Drizzle
12:55 PM 59.0 °F - 48.2 °F 67% 29.90 in 10.0 mi SSW 16.1 mph 27.6 mph N/A   Overcast
1:15 PM 57.2 °F - 50.0 °F 77% 29.90 in 5.0 mi SSW 19.6 mph 28.8 mph N/A   Haze
1:35 PM 55.4 °F - 50.0 °F 82% 29.89 in 10.0 mi SSW 12.7 mph 20.7 mph N/A   Overcast
1:55 PM 55.4 °F - 50.0 °F 82% 29.89 in 10.0 mi SSW 15.0 mph 23.0 mph N/A   Drizzle
2:15 PM 55.4 °F - 51.8 °F 88% 29.88 in 7.0 mi SSW 12.7 mph 21.9 mph N/A Rain Light Rain
2:35 PM 55.4 °F - 51.8 °F 88% 29.87 in 10.0 mi SSW 12.7 mph 20.7 mph N/A Rain Light Rain
2:55 PM 55.4 °F - 51.8 °F 88% 29.87 in 10.0 mi South 9.2 mph 18.4 mph N/A Rain Light Rain
3:15 PM 55.4 °F - 51.8 °F 88% 29.85 in 7.0 mi SSW 15.0 mph 19.6 mph N/A Rain Light Rain
3:35 PM 55.4 °F - 51.8 °F 88% 29.88 in 10.0 mi SW 6.9 mph 17.3 mph N/A Rain Light Rain
3:55 PM 55.4 °F - 53.6 °F 94% 29.88 in 10.0 mi SW 12.7 mph 19.6 mph N/A Rain Rain
4:15 PM 57.2 °F - 53.6 °F 88% 29.89 in 10.0 mi WSW 13.8 mph 23.0 mph N/A   Overcast
4:35 PM 57.2 °F - 51.8 °F 82% 29.89 in 10.0 mi WSW 12.7 mph 25.3 mph N/A Rain Rain
4:55 PM 55.4 °F - 51.8 °F 88% 29.87 in 10.0 mi SW 10.4 mph 18.4 mph N/A   Drizzle
5:15 PM 55.4 °F - 51.8 °F 88% 29.88 in 10.0 mi SW 9.2 mph 19.6 mph N/A   Drizzle
5:35 PM 55.4 °F - 51.8 °F 88% 29.87 in 10.0 mi SW 10.4 mph 19.6 mph N/A   Light Drizzle
5:55 PM 55.4 °F - 51.8 °F 88% 29.89 in 10.0 mi SW 10.4 mph 16.1 mph N/A   Overcast
6:15 PM 55.4 °F - 51.8 °F 88% 29.89 in 10.0 mi SW 8.1 mph 16.1 mph N/A   Overcast
6:35 PM 57.2 °F - 51.8 °F 82% 29.89 in 10.0 mi SW 11.5 mph 20.7 mph N/A   Overcast
6:55 PM 57.2 °F - 51.8 °F 82% 29.90 in 10.0 mi SW 12.7 mph 18.4 mph N/A   Overcast
7:15 PM 57.2 °F - 51.8 °F 82% 29.89 in 10.0 mi SW 11.5 mph 19.6 mph N/A   Overcast
7:35 PM 55.4 °F - 51.8 °F 88% 29.90 in 10.0 mi WSW 10.4 mph 19.6 mph N/A   Overcast
7:55 PM 55.4 °F - 51.8 °F 88% 29.93 in 5.0 mi West 18.4 mph 27.6 mph N/A Rain Rain
8:15 PM 50.0 °F - 44.6 °F 82% 29.94 in 10.0 mi West 12.7 mph 20.7 mph N/A Rain Light Rain
8:35 PM 50.0 °F - 44.6 °F 82% 29.94 in 10.0 mi WNW 6.9 mph - N/A Rain Rain
8:55 PM 48.2 °F - 44.6 °F 87% 29.95 in 7.0 mi West 12.7 mph 17.3 mph N/A Rain Light Rain
9:15 PM 46.4 °F 41.5 °F 44.6 °F 93% 29.98 in 10.0 mi WNW 10.4 mph 16.1 mph N/A Rain Light Rain
9:35 PM 46.4 °F 42.9 °F 42.8 °F 87% 29.96 in 10.0 mi WNW 6.9 mph - N/A Rain Light Rain
9:55 PM 46.4 °F 42.4 °F 42.8 °F 87% 29.96 in 10.0 mi WNW 8.1 mph - N/A Rain Light Rain
10:15 PM 46.4 °F 42.9 °F 41.0 °F 81% 29.98 in 10.0 mi West 6.9 mph - N/A   Overcast
10:35 PM 46.4 °F 42.4 °F 41.0 °F 81% 29.99 in 10.0 mi West 8.1 mph - N/A   Overcast
10:55 PM 44.6 °F 40.7 °F 41.0 °F 87% 29.99 in 10.0 mi WNW 6.9 mph - N/A   Overcast
11:15 PM 44.6 °F 40.2 °F 41.0 °F 87% 30.00 in 10.0 mi WNW 8.1 mph - N/A   Overcast
11:35 PM 44.6 °F 40.2 °F 41.0 °F 87% 30.00 in 10.0 mi WNW 8.1 mph - N/A   Overcast
11:55 PM 44.6 °F 40.2 °F 39.2 °F 81% 30.00 in 10.0 mi NW 8.1 mph 19.6 mph N/A   Overcast